createdAt,value
2022-10-20T00:04:09.994Z,11.65
2022-10-20T00:08:50.652Z,11.72
2022-10-20T00:13:33.032Z,11.76
2022-10-20T00:18:13.146Z,11.75
2022-10-20T00:22:53.587Z,11.71
2022-10-20T00:27:34.086Z,11.78
2022-10-20T00:32:15.802Z,11.81
2022-10-20T00:36:55.993Z,11.78
2022-10-20T00:41:36.518Z,11.78
2022-10-20T00:46:21.684Z,11.75
2022-10-20T00:51:03.542Z,11.74
2022-10-20T00:55:48.788Z,11.74
2022-10-20T01:00:30.542Z,11.84
2022-10-20T01:05:11.044Z,11.90
2022-10-20T01:09:53.054Z,11.95
2022-10-20T01:14:42.216Z,11.98
2022-10-20T01:19:45.525Z,11.93
2022-10-20T01:24:47.596Z,11.96
2022-10-20T01:29:35.019Z,12.05
2022-10-20T01:34:24.141Z,12.02
2022-10-20T01:39:10.044Z,11.99
2022-10-20T01:43:52.238Z,11.99
2022-10-20T01:48:37.997Z,12.03
2022-10-20T01:53:18.700Z,11.96
2022-10-20T01:58:26.111Z,12.02
2022-10-20T02:03:21.767Z,11.99
2022-10-20T02:08:13.209Z,11.98
2022-10-20T02:12:57.761Z,12.03
2022-10-20T02:17:42.184Z,12.03
2022-10-20T02:22:23.669Z,12.00
2022-10-20T02:27:10.258Z,11.96
2022-10-20T02:31:50.916Z,11.95
2022-10-20T02:36:31.684Z,11.97
2022-10-20T02:41:12.424Z,11.94
2022-10-20T02:45:53.834Z,11.87
2022-10-20T02:50:34.176Z,11.89
2022-10-20T02:55:14.779Z,11.86
2022-10-20T02:59:55.170Z,11.89
2022-10-20T03:04:36.868Z,11.86
2022-10-20T03:09:17.226Z,11.83
2022-10-20T03:13:57.390Z,11.83
2022-10-20T03:18:37.601Z,11.84
2022-10-20T03:23:20.189Z,11.83
2022-10-20T03:28:00.814Z,11.77
2022-10-20T03:32:40.836Z,11.80
2022-10-20T03:37:20.956Z,11.81
2022-10-20T03:42:02.690Z,11.83
2022-10-20T03:46:43.021Z,11.81
2022-10-20T03:51:23.028Z,11.80
2022-10-20T03:56:07.218Z,11.79
2022-10-20T04:00:49.690Z,11.77
2022-10-20T04:05:29.944Z,11.80
2022-10-20T04:10:11.409Z,11.75
2022-10-20T04:14:51.818Z,11.74
2022-10-20T04:19:33.212Z,11.75
2022-10-20T04:24:13.105Z,11.73
2022-10-20T04:28:53.237Z,11.74
2022-10-20T04:33:33.247Z,11.69
2022-10-20T04:38:14.852Z,11.70
2022-10-20T04:42:55.227Z,11.64
2022-10-20T04:47:37.744Z,11.64
2022-10-20T04:52:20.761Z,11.70
2022-10-20T04:57:02.315Z,11.74
2022-10-20T05:01:42.358Z,11.67
2022-10-20T05:06:25.278Z,11.67
2022-10-20T05:11:05.190Z,11.63
2022-10-20T05:15:53.147Z,11.57
2022-10-20T05:20:41.356Z,11.59
2022-10-20T05:25:36.441Z,11.50
2022-10-20T05:30:17.448Z,11.51
2022-10-20T05:34:59.467Z,11.53
2022-10-20T05:39:39.840Z,11.49
2022-10-20T05:44:20.439Z,11.51
2022-10-20T05:49:03.442Z,11.54
2022-10-20T05:53:47.109Z,11.50
2022-10-20T05:58:27.336Z,11.54
2022-10-20T06:03:07.820Z,11.55
2022-10-20T06:07:48.077Z,11.55
2022-10-20T06:12:29.682Z,11.61
2022-10-20T06:17:10.595Z,11.60
2022-10-20T06:21:50.837Z,11.62
2022-10-20T06:26:32.923Z,11.67
2022-10-20T06:31:17.092Z,11.72
2022-10-20T06:36:00.851Z,11.68
2022-10-20T06:40:41.047Z,11.77
2022-10-20T06:45:21.307Z,11.89
2022-10-20T06:50:03.010Z,11.89
2022-10-20T06:54:43.326Z,11.96
2022-10-20T06:59:23.667Z,12.04
2022-10-20T07:04:07.122Z,12.10
2022-10-20T07:08:51.085Z,12.19
2022-10-20T07:13:32.827Z,12.27
2022-10-20T07:18:12.806Z,12.34
2022-10-20T07:22:53.052Z,12.38
2022-10-20T07:27:34.594Z,12.43
2022-10-20T07:32:15.057Z,12.51
2022-10-20T07:36:55.828Z,12.56
2022-10-20T07:41:37.988Z,12.75
2022-10-20T07:46:19.495Z,12.83
2022-10-20T07:55:55.097Z,13.18
2022-10-20T08:00:35.408Z,13.34
2022-10-20T08:05:17.442Z,13.15
2022-10-20T08:09:57.571Z,13.34
2022-10-20T08:14:37.989Z,13.43
2022-10-20T08:19:26.494Z,13.47
2022-10-20T08:24:08.245Z,13.52
2022-10-20T08:28:48.948Z,13.54
2022-10-20T08:33:29.001Z,13.66
2022-10-20T08:38:09.424Z,14.10
2022-10-20T08:42:52.054Z,14.56
2022-10-20T08:47:36.693Z,14.47
2022-10-20T08:52:19.388Z,14.26
2022-10-20T08:57:00.311Z,14.77
2022-10-20T09:01:41.869Z,14.63
2022-10-20T09:06:23.137Z,14.24
2022-10-20T09:11:04.196Z,14.57
2022-10-20T09:15:44.792Z,14.59
2022-10-20T09:20:31.550Z,14.36
2022-10-20T09:25:17.126Z,14.43
2022-10-20T09:29:57.264Z,14.48
2022-10-20T09:34:37.417Z,14.27
2022-10-20T09:39:23.176Z,14.06
2022-10-20T09:44:09.729Z,13.83
2022-10-20T09:48:51.433Z,13.74
2022-10-20T09:53:34.956Z,13.75
2022-10-20T09:58:22.893Z,13.90
2022-10-20T10:03:14.573Z,13.99
2022-10-20T10:08:00.021Z,14.10
2022-10-20T10:12:40.183Z,14.23
2022-10-20T10:17:31.597Z,14.30
2022-10-20T10:22:14.183Z,14.28
2022-10-20T10:26:55.668Z,14.06
2022-10-20T10:31:36.179Z,13.88
2022-10-20T10:36:28.619Z,13.66
2022-10-20T10:41:21.111Z,13.58
2022-10-20T10:46:06.969Z,13.47
2022-10-20T10:50:53.575Z,13.33
2022-10-20T10:55:54.666Z,13.26
2022-10-20T11:00:48.067Z,13.08
2022-10-20T11:05:53.305Z,13.00
2022-10-20T11:10:41.785Z,12.91
2022-10-20T11:15:40.304Z,12.88
2022-10-20T11:20:33.265Z,12.88
2022-10-20T11:25:25.438Z,12.82
2022-10-20T11:30:18.285Z,12.84
2022-10-20T11:35:03.580Z,12.82
2022-10-20T11:39:50.007Z,12.79
2022-10-20T11:44:38.124Z,12.79
2022-10-20T11:49:20.374Z,12.77
2022-10-20T11:54:14.344Z,12.81
2022-10-20T11:59:22.186Z,12.84
2022-10-20T12:04:22.220Z,12.88
2022-10-20T12:09:35.958Z,12.99
2022-10-20T12:14:23.761Z,13.29
2022-10-20T12:19:16.272Z,13.51
2022-10-20T12:24:05.709Z,13.69
2022-10-20T12:28:47.714Z,13.95
2022-10-20T12:33:45.584Z,14.28
2022-10-20T12:38:26.353Z,14.76
2022-10-20T12:43:06.762Z,14.71
2022-10-20T12:47:51.018Z,14.59
2022-10-20T12:52:34.434Z,14.51
2022-10-20T12:57:31.962Z,14.48
2022-10-20T13:02:36.552Z,14.63
2022-10-20T13:07:57.930Z,14.77
2022-10-20T13:12:41.062Z,14.95
2022-10-20T13:17:44.300Z,15.15
2022-10-20T13:22:47.639Z,15.25
2022-10-20T13:27:29.268Z,15.14
2022-10-20T13:32:18.493Z,15.10
2022-10-20T13:37:08.465Z,15.82
2022-10-20T13:41:57.187Z,17.23
2022-10-20T13:46:52.258Z,18.67
2022-10-20T13:51:38.365Z,18.26
2022-10-20T13:56:34.788Z,18.85
2022-10-20T14:01:23.305Z,18.61
2022-10-20T14:06:03.667Z,17.39
2022-10-20T14:10:49.574Z,17.70
2022-10-20T14:15:33.874Z,18.38
2022-10-20T14:20:23.305Z,18.98
2022-10-20T14:25:05.464Z,19.25
2022-10-20T14:29:46.868Z,19.22
2022-10-20T14:34:30.207Z,18.47
2022-10-20T14:39:23.300Z,18.75
2022-10-20T14:44:09.305Z,18.73
2022-10-20T14:48:54.162Z,18.38
2022-10-20T14:53:34.668Z,18.53
2022-10-20T14:58:38.699Z,17.95
2022-10-20T15:03:19.406Z,18.51
2022-10-20T15:08:08.026Z,18.09
2022-10-20T15:12:50.670Z,18.04
2022-10-20T15:17:38.821Z,17.91
2022-10-20T15:22:19.664Z,17.84
2022-10-20T15:27:02.978Z,17.07
2022-10-20T15:31:43.714Z,16.66
2022-10-20T15:36:32.035Z,16.50
2022-10-20T15:41:14.839Z,16.42
2022-10-20T15:45:56.411Z,16.24
2022-10-20T15:50:37.809Z,16.03
2022-10-20T15:55:25.029Z,16.08
2022-10-20T16:00:06.137Z,16.41
2022-10-20T16:04:47.142Z,16.34
2022-10-20T16:09:27.747Z,16.08
2022-10-20T16:14:09.269Z,15.93
2022-10-20T16:18:49.456Z,15.63
2022-10-20T16:23:29.777Z,15.45
2022-10-20T16:28:10.042Z,15.30
2022-10-20T16:32:51.455Z,15.18
2022-10-20T16:37:32.350Z,15.13
2022-10-20T16:42:25.253Z,15.03
2022-10-20T16:47:02.268Z,14.91
2022-10-20T16:51:20.466Z,14.93
2022-10-20T16:56:00.534Z,14.86
2022-10-20T17:00:40.542Z,14.79
2022-10-20T17:05:26.339Z,14.74
2022-10-20T17:10:09.895Z,14.68
2022-10-20T17:14:50.020Z,14.69
2022-10-20T17:19:30.269Z,14.72
2022-10-20T17:24:12.681Z,14.71
2022-10-20T17:28:55.218Z,14.65
2022-10-20T17:33:36.000Z,14.67
2022-10-20T17:38:16.120Z,14.67
2022-10-20T17:42:19.930Z,14.67
2022-10-20T17:46:24.504Z,14.66
2022-10-20T17:50:27.557Z,14.65
2022-10-20T17:54:30.560Z,14.67
2022-10-20T17:58:34.086Z,14.72
2022-10-20T18:02:39.003Z,14.73
2022-10-20T18:06:45.578Z,14.77
2022-10-20T18:11:02.284Z,14.77
2022-10-20T18:15:06.667Z,14.83
2022-10-20T18:19:15.513Z,14.78
2022-10-20T18:23:18.578Z,14.80
2022-10-20T18:27:23.424Z,14.81
2022-10-20T18:31:29.257Z,14.78
2022-10-20T18:35:37.013Z,14.82
2022-10-20T18:39:40.192Z,14.79
2022-10-20T18:43:45.467Z,14.82
2022-10-20T18:47:48.493Z,14.78
2022-10-20T18:51:52.943Z,14.84
2022-10-20T18:56:00.701Z,14.74
2022-10-20T19:00:03.912Z,14.67
2022-10-20T19:04:08.287Z,14.70
2022-10-20T19:08:12.719Z,14.69
2022-10-20T19:12:15.764Z,14.62
2022-10-20T19:16:20.651Z,14.58
2022-10-20T19:20:23.717Z,14.51
2022-10-20T19:24:28.065Z,14.47
2022-10-20T19:28:32.291Z,14.37
2022-10-20T19:32:38.904Z,14.43
2022-10-20T19:36:46.877Z,14.41
2022-10-20T19:40:52.268Z,14.40
2022-10-20T19:44:56.715Z,14.38
2022-10-20T19:49:00.583Z,14.38
2022-10-20T19:53:03.875Z,14.38
2022-10-20T19:57:08.246Z,14.38
2022-10-20T20:01:11.616Z,14.37
2022-10-20T20:05:14.676Z,14.37
2022-10-20T20:09:17.627Z,14.37
2022-10-20T20:13:22.788Z,14.40
2022-10-20T20:17:25.750Z,14.32
2022-10-20T20:21:29.004Z,14.36
2022-10-20T20:25:32.043Z,14.33
2022-10-20T20:29:36.908Z,14.36
2022-10-20T20:33:40.121Z,14.29
2022-10-20T20:37:43.392Z,14.27
2022-10-20T20:41:47.161Z,14.20
2022-10-20T20:45:51.755Z,14.22
2022-10-20T20:49:54.785Z,14.23
2022-10-20T20:53:57.721Z,14.21
2022-10-20T20:58:00.931Z,14.28
2022-10-20T21:02:05.323Z,14.30
2022-10-20T21:06:09.886Z,14.32
2022-10-20T21:10:12.845Z,14.35
2022-10-20T21:14:15.910Z,14.40
2022-10-20T21:18:20.225Z,14.44
2022-10-20T21:22:23.187Z,14.48
2022-10-20T21:26:26.689Z,14.59
2022-10-20T21:34:38.741Z,14.62
2022-10-20T21:38:42.492Z,14.67
2022-10-20T21:42:45.473Z,14.63
2022-10-20T21:46:50.178Z,14.61
2022-10-20T21:50:54.485Z,14.63
2022-10-20T21:54:57.391Z,14.65
2022-10-20T21:59:00.379Z,14.65
2022-10-20T22:03:03.305Z,14.66
2022-10-20T22:07:07.834Z,14.69
2022-10-20T22:11:14.113Z,14.72
2022-10-20T22:15:17.240Z,14.80
2022-10-20T22:19:22.040Z,14.64
2022-10-20T22:23:26.327Z,14.49
2022-10-20T22:27:31.786Z,14.46
2022-10-20T22:31:44.718Z,14.43
2022-10-20T22:35:47.697Z,14.39
2022-10-20T22:39:51.978Z,14.36
2022-10-20T22:43:55.007Z,14.36
2022-10-20T22:47:58.764Z,14.40
2022-10-20T22:52:01.746Z,14.35
2022-10-20T22:56:11.509Z,14.42
2022-10-20T23:00:15.889Z,14.43
2022-10-20T23:04:18.837Z,14.40
2022-10-20T23:08:21.799Z,14.40
2022-10-20T23:12:26.080Z,14.42
2022-10-20T23:16:29.026Z,14.41
2022-10-20T23:20:32.001Z,14.43
2022-10-20T23:24:34.954Z,14.41
2022-10-20T23:28:39.898Z,14.39
2022-10-20T23:32:43.018Z,14.45
2022-10-20T23:36:46.039Z,14.47
2022-10-20T23:40:49.061Z,14.48
2022-10-20T23:44:53.587Z,14.53
2022-10-20T23:48:56.834Z,14.50
2022-10-20T23:52:59.771Z,14.46
2022-10-20T23:57:02.701Z,14.42
